Bessie Ellen — ZITL7 — position and weather

sailwx.info

Track history (hours):
 
Tides and Currents Weather Stations Pressure Air Temp Water Temp Dewpoint Dewpoint Depression Visibility Wind Speed Wind Dir Waves Ship Positions

Bessie Ellen

Ship's website: http://bessie-ellen.com/blog/

Last reported at 2017-Oct-31 00:59 UTC. Time now 2017-Dec-16 01:50 UTC.
Position N 38°02' W 010°47'.
Warning: this ship's position is 46 days out of date.

Length 28 m.

Type: Sailing vessel. MMSI: 235005952.

Date/timePositionNaut miles runAvg speedWind from/ knotsBaromVisibWave heightAir tempDewpointWater temp
2017-Oct-31 00:59N 38°02' W 010°47'3 6.6
2017-Oct-31 00:30N 38°04' W 010°43'3 6.3
2017-Oct-31 00:00N 38°05' W 010°40'3 6.0
2017-Oct-30 23:30N 38°06' W 010°36'4 6.3
2017-Oct-30 22:53N 38°08' W 010°32'3 6.9
2017-Oct-30 22:25N 38°09' W 010°28'4 7.0
2017-Oct-30 21:49N 38°11' W 010°23'2 7.0
2017-Oct-30 21:29N 38°12' W 010°21'4 7.5
2017-Oct-30 20:58N 38°14' W 010°17'4 7.6
2017-Oct-30 20:31N 38°16' W 010°13'4 7.2
2017-Oct-30 20:00N 38°19' W 010°10'4 6.7
2017-Oct-30 19:28N 38°21' W 010°06'3 6.6
2017-Oct-30 19:01N 38°22' W 010°02'4 7.7
2017-Oct-30 18:30N 38°24' W 009°58'4 7.1
2017-Oct-30 18:00N 38°26' W 009°54'4 7.1
2017-Oct-30 17:30N 38°27' W 009°50'4 7.5
2017-Oct-30 17:00N 38°29' W 009°46'4 7.4
2017-Oct-30 16:30N 38°31' W 009°42'3 6.7
2017-Oct-30 16:00N 38°33' W 009°38'3 5.8
2017-Oct-30 15:30N 38°34' W 009°35'3 5.6
2017-Oct-30 15:00N 38°35' W 009°32'3 5.4
2017-Oct-30 14:30N 38°37' W 009°29'5 4.5
2017-Oct-30 13:30N 38°40' W 009°25'1 2.4
2017-Oct-30 13:00N 38°41' W 009°25'0 0.5
2017-Oct-30 12:30N 38°42' W 009°25'0 0.0
2017-Oct-30 12:00N 38°42' W 009°25'0 0.0
2017-Oct-30 11:30N 38°42' W 009°25'0 0.0
2017-Oct-30 11:00N 38°42' W 009°25'0 0.0
2017-Oct-30 10:30N 38°42' W 009°25'0 0.0
2017-Oct-30 09:59N 38°42' W 009°25'0 0.0
2017-Oct-30 09:30N 38°42' W 009°25'0 0.0
2017-Oct-30 09:00N 38°42' W 009°25'0 0.0
2017-Oct-30 08:30N 38°42' W 009°25'0 0.0
2017-Oct-30 08:00N 38°42' W 009°25'0 0.0
2017-Oct-30 07:30N 38°42' W 009°25'0 0.0
2017-Oct-30 07:00N 38°42' W 009°25'0 0.0
2017-Oct-30 06:30N 38°42' W 009°25'0 0.0
2017-Oct-30 06:00N 38°42' W 009°25'0 0.0
2017-Oct-30 05:30N 38°42' W 009°25'0 0.0
2017-Oct-30 05:00N 38°42' W 009°25'0 0.0
2017-Oct-30 04:30N 38°42' W 009°25'0 0.0
2017-Oct-30 04:00N 38°42' W 009°25'0 0.0
2017-Oct-30 03:30N 38°42' W 009°25'0 0.0
2017-Oct-30 03:00N 38°42' W 009°25'0 0.0
2017-Oct-30 02:30N 38°42' W 009°25'0 0.0
2017-Oct-30 02:00N 38°42' W 009°25'0 0.0
2017-Oct-30 01:30N 38°42' W 009°25'0 0.0
2017-Oct-30 01:00N 38°42' W 009°25'0 0.0
2017-Oct-30 00:30N 38°42' W 009°25'0 0.0
2017-Oct-30 00:00N 38°42' W 009°25'0 0.0
2017-Oct-29 23:30N 38°42' W 009°25'0 0.0
2017-Oct-29 23:00N 38°42' W 009°25'0 0.0
2017-Oct-29 22:30N 38°42' W 009°25'0 0.0
2017-Oct-29 22:00N 38°42' W 009°25'0 0.0
2017-Oct-29 21:30N 38°42' W 009°25'0 0.0
2017-Oct-29 21:00N 38°42' W 009°25'0 0.0
2017-Oct-29 20:30N 38°42' W 009°25'0 0.0
2017-Oct-29 20:00N 38°42' W 009°25'0 0.0
2017-Oct-29 19:30N 38°42' W 009°25'0 0.0
2017-Oct-29 19:00N 38°42' W 009°25'0 0.0
2017-Oct-29 18:30N 38°42' W 009°25'0 0.0
2017-Oct-29 18:00N 38°42' W 009°25'0 0.0
2017-Oct-29 17:30N 38°42' W 009°25'0 0.0
2017-Oct-29 17:00N 38°42' W 009°25'0 0.0
2017-Oct-29 16:30N 38°42' W 009°25'0 0.0
2017-Oct-29 16:00N 38°42' W 009°25'0 0.0
2017-Oct-29 15:30N 38°42' W 009°25'0 0.0
2017-Oct-29 14:59N 38°42' W 009°25'0 0.0
2017-Oct-29 14:30N 38°42' W 009°25'0 0.0
2017-Oct-29 14:00N 38°42' W 009°25'0 0.0
2017-Oct-29 13:30N 38°42' W 009°25'0 0.0
2017-Oct-29 13:00N 38°42' W 009°25'0 0.0
2017-Oct-29 12:30N 38°42' W 009°25'0 0.0
2017-Oct-29 12:00N 38°42' W 009°25'0 0.0
2017-Oct-29 11:30N 38°42' W 009°25'0 0.0
2017-Oct-29 11:00N 38°42' W 009°25'0 0.0
2017-Oct-29 10:30N 38°42' W 009°25'0 0.0
2017-Oct-29 10:00N 38°42' W 009°25'0 0.0
2017-Oct-29 09:30N 38°42' W 009°25'0 0.0
2017-Oct-29 09:00N 38°42' W 009°25'0 0.0
2017-Oct-29 08:30N 38°42' W 009°25'0 0.0
2017-Oct-29 07:59N 38°42' W 009°25'0 0.0
2017-Oct-29 07:30N 38°42' W 009°25'0 0.0
2017-Oct-29 07:00N 38°42' W 009°25'0 0.0
2017-Oct-29 06:30N 38°42' W 009°25'0 0.0
2017-Oct-29 06:00N 38°42' W 009°25'0 0.0
2017-Oct-29 05:30N 38°42' W 009°25'0 0.0
2017-Oct-29 05:00N 38°42' W 009°25'0 0.0
2017-Oct-29 04:29N 38°42' W 009°25'0 0.0
2017-Oct-29 04:00N 38°42' W 009°25'0 0.0
2017-Oct-28 19:00N 38°42' W 009°25'0 0.0
2017-Oct-28 18:27N 38°42' W 009°25'0 0.0
2017-Oct-28 17:59N 38°42' W 009°25'0 0.0
2017-Oct-28 17:30N 38°42' W 009°25'0 0.0
2017-Oct-28 17:00N 38°42' W 009°25'0 0.0
2017-Oct-28 16:30N 38°42' W 009°25'0 0.0
2017-Oct-28 16:00N 38°42' W 009°25'0 0.0
2017-Oct-28 15:30N 38°42' W 009°25'0 0.0
2017-Oct-28 15:00N 38°42' W 009°25'0 0.0
2017-Oct-28 14:28N 38°42' W 009°25'0 0.0
2017-Oct-28 14:00N 38°42' W 009°25'0 0.0
2017-Oct-28 13:30N 38°42' W 009°25'0 0.0
2017-Oct-28 12:57N 38°42' W 009°25'0 0.0
2017-Oct-28 12:30N 38°42' W 009°25'0 0.0
2017-Oct-28 11:56N 38°42' W 009°25'0 0.0
2017-Oct-28 11:30N 38°42' W 009°25'0 0.0
2017-Oct-28 11:00N 38°42' W 009°25'0 0.0
2017-Oct-28 10:30N 38°42' W 009°25'0 0.0
2017-Oct-28 10:00N 38°42' W 009°25'0 0.0
2017-Oct-28 09:30N 38°42' W 009°25'0 0.0
2017-Oct-28 09:00N 38°42' W 009°25'0 0.0
2017-Oct-28 08:30N 38°42' W 009°25'0 0.0
2017-Oct-28 08:00N 38°42' W 009°25'0 0.0
2017-Oct-28 07:30N 38°42' W 009°25'0 0.0
2017-Oct-28 07:00N 38°42' W 009°25'0 0.0
2017-Oct-28 06:29N 38°42' W 009°25'0 0.0
2017-Oct-28 06:00N 38°42' W 009°25'0 0.0
2017-Oct-28 05:29N 38°42' W 009°25'0 0.0
2017-Oct-28 04:59N 38°42' W 009°25'0 0.0
2017-Oct-28 04:28N 38°42' W 009°25'0 0.0
2017-Oct-28 03:59N 38°42' W 009°25'0 0.0
2017-Oct-28 03:30N 38°42' W 009°25'0 0.0
2017-Oct-28 03:00N 38°42' W 009°25'0 0.0
2017-Oct-28 02:30N 38°42' W 009°25'0 0.0
2017-Oct-28 02:00N 38°42' W 009°25'0 0.0
2017-Oct-28 01:29N 38°42' W 009°25'0 0.0
2017-Oct-28 01:00N 38°42' W 009°25'0 0.0
2017-Oct-28 00:30N 38°42' W 009°25'0 0.0
2017-Oct-28 00:00N 38°42' W 009°25'0 0.0
2017-Oct-27 23:30N 38°42' W 009°25'0 0.0
2017-Oct-27 23:00N 38°42' W 009°25'0 0.0
2017-Oct-27 22:30N 38°42' W 009°25'0 0.0
2017-Oct-27 22:00N 38°42' W 009°25'0 0.0
2017-Oct-27 21:30N 38°42' W 009°25'0 0.0
2017-Oct-27 21:00N 38°42' W 009°25'0 0.0
2017-Oct-27 20:30N 38°42' W 009°25'0 0.0
2017-Oct-27 19:59N 38°42' W 009°25'0 0.0
2017-Oct-27 19:30N 38°42' W 009°25'0 0.0
2017-Oct-27 19:00N 38°42' W 009°25'0 0.0
2017-Oct-27 18:30N 38°42' W 009°25'0 0.0
2017-Oct-27 18:00N 38°42' W 009°25'0 0.0
2017-Oct-27 17:30N 38°42' W 009°25'0 0.0
2017-Oct-27 17:00N 38°42' W 009°25'0 0.0
2017-Oct-27 16:29N 38°42' W 009°25'0 0.0
2017-Oct-27 16:00N 38°42' W 009°25'0 0.0
2017-Oct-27 15:30N 38°42' W 009°25'0 0.0
2017-Oct-27 15:00N 38°42' W 009°25'0 0.0
2017-Oct-27 14:30N 38°42' W 009°25'0 0.0
2017-Oct-27 14:00N 38°42' W 009°25'0 0.0
2017-Oct-27 13:30N 38°42' W 009°25'0 0.0
2017-Oct-27 13:00N 38°42' W 009°25'0 0.0
2017-Oct-27 12:30N 38°42' W 009°25'0 0.0
2017-Oct-27 12:00N 38°42' W 009°25'0 0.0
2017-Oct-27 11:30N 38°42' W 009°25'0 0.0
2017-Oct-27 11:00N 38°42' W 009°25'0 0.0
2017-Oct-27 10:30N 38°42' W 009°25'0 0.0
2017-Oct-27 10:00N 38°42' W 009°25'0 0.0
2017-Oct-27 09:30N 38°42' W 009°25'0 0.0
2017-Oct-27 09:00N 38°42' W 009°25'0 0.0
2017-Oct-27 08:30N 38°42' W 009°25'0 0.0
2017-Oct-27 08:00N 38°42' W 009°25'0 0.0
2017-Oct-27 07:30N 38°42' W 009°25'0 0.6
2017-Oct-27 07:00N 38°42' W 009°25'2 4.4
2017-Oct-27 06:30N 38°40' W 009°26'2 4.3
2017-Oct-27 06:00N 38°39' W 009°28'2 4.6
2017-Oct-27 05:30N 38°39' W 009°31'2 4.5
2017-Oct-27 05:00N 38°41' W 009°33'2 4.7
2017-Oct-27 04:30N 38°43' W 009°35'2 4.7
2017-Oct-27 04:00N 38°45' W 009°37'2 4.9
2017-Oct-27 03:30N 38°47' W 009°38'2 4.8
2017-Oct-27 03:00N 38°49' W 009°39'3 5.1
2017-Oct-27 02:30N 38°51' W 009°40'2 5.0
2017-Oct-27 02:00N 38°54' W 009°41'2 5.0
2017-Oct-27 01:30N 38°56' W 009°41'2 4.7
2017-Oct-27 01:00N 38°59' W 009°42'2 4.7
2017-Oct-27 00:30N 39°01' W 009°41'2 5.0
2017-Oct-27 00:00N 39°04' W 009°41'3 5.0
2017-Oct-26 23:30N 39°06' W 009°41'3 5.3
2017-Oct-26 22:58N 39°09' W 009°41'283 5.6
2017-Oct-24 20:32N 43°46' W 008°22'1 7.0
2017-Oct-24 20:27N 43°46' W 008°21'  
2017-Oct-22 08:48N 47°47' W 004°01'5 5.3
2017-Oct-22 07:53N 47°51' W 003°56'  
Track history (hours):
 
Tides and Currents Weather Stations Pressure Air Temp Water Temp Dewpoint Dewpoint Depression Visibility Wind Speed Wind Dir Waves Ship Positions

Bessie Ellen

Ship's website: http://bessie-ellen.com/blog/

Last reported at 2017-Oct-31 00:59 UTC. Time now 2017-Dec-16 01:50 UTC.
Position N 38°02' W 010°47'.
Warning: this ship's position is 46 days out of date.

Length 28 m.

Type: Sailing vessel. MMSI: 235005952.

Date/timePositionNaut miles runAvg speedWind from/ knotsBaromVisibWave heightAir tempDewpointWater temp
2017-Oct-31 00:59N 38°02' W 010°47'3 6.6
2017-Oct-31 00:30N 38°04' W 010°43'3 6.3
2017-Oct-31 00:00N 38°05' W 010°40'3 6.0
2017-Oct-30 23:30N 38°06' W 010°36'4 6.3
2017-Oct-30 22:53N 38°08' W 010°32'3 6.9
2017-Oct-30 22:25N 38°09' W 010°28'4 7.0
2017-Oct-30 21:49N 38°11' W 010°23'2 7.0
2017-Oct-30 21:29N 38°12' W 010°21'4 7.5
2017-Oct-30 20:58N 38°14' W 010°17'4 7.6
2017-Oct-30 20:31N 38°16' W 010°13'4 7.2
2017-Oct-30 20:00N 38°19' W 010°10'4 6.7
2017-Oct-30 19:28N 38°21' W 010°06'3 6.6
2017-Oct-30 19:01N 38°22' W 010°02'4 7.7
2017-Oct-30 18:30N 38°24' W 009°58'4 7.1
2017-Oct-30 18:00N 38°26' W 009°54'4 7.1
2017-Oct-30 17:30N 38°27' W 009°50'4 7.5
2017-Oct-30 17:00N 38°29' W 009°46'4 7.4
2017-Oct-30 16:30N 38°31' W 009°42'3 6.7
2017-Oct-30 16:00N 38°33' W 009°38'3 5.8
2017-Oct-30 15:30N 38°34' W 009°35'3 5.6
2017-Oct-30 15:00N 38°35' W 009°32'3 5.4
2017-Oct-30 14:30N 38°37' W 009°29'5 4.5
2017-Oct-30 13:30N 38°40' W 009°25'1 2.4
2017-Oct-30 13:00N 38°41' W 009°25'0 0.5
2017-Oct-30 12:30N 38°42' W 009°25'0 0.0
2017-Oct-30 12:00N 38°42' W 009°25'0 0.0
2017-Oct-30 11:30N 38°42' W 009°25'0 0.0
2017-Oct-30 11:00N 38°42' W 009°25'0 0.0
2017-Oct-30 10:30N 38°42' W 009°25'0 0.0
2017-Oct-30 09:59N 38°42' W 009°25'0 0.0
2017-Oct-30 09:30N 38°42' W 009°25'0 0.0
2017-Oct-30 09:00N 38°42' W 009°25'0 0.0
2017-Oct-30 08:30N 38°42' W 009°25'0 0.0
2017-Oct-30 08:00N 38°42' W 009°25'0 0.0
2017-Oct-30 07:30N 38°42' W 009°25'0 0.0
2017-Oct-30 07:00N 38°42' W 009°25'0 0.0
2017-Oct-30 06:30N 38°42' W 009°25'0 0.0
2017-Oct-30 06:00N 38°42' W 009°25'0 0.0
2017-Oct-30 05:30N 38°42' W 009°25'0 0.0
2017-Oct-30 05:00N 38°42' W 009°25'0 0.0
2017-Oct-30 04:30N 38°42' W 009°25'0 0.0
2017-Oct-30 04:00N 38°42' W 009°25'0 0.0
2017-Oct-30 03:30N 38°42' W 009°25'0 0.0
2017-Oct-30 03:00N 38°42' W 009°25'0 0.0
2017-Oct-30 02:30N 38°42' W 009°25'0 0.0
2017-Oct-30 02:00N 38°42' W 009°25'0 0.0
2017-Oct-30 01:30N 38°42' W 009°25'0 0.0
2017-Oct-30 01:00N 38°42' W 009°25'0 0.0
2017-Oct-30 00:30N 38°42' W 009°25'0 0.0
2017-Oct-30 00:00N 38°42' W 009°25'0 0.0
2017-Oct-29 23:30N 38°42' W 009°25'0 0.0
2017-Oct-29 23:00N 38°42' W 009°25'0 0.0
2017-Oct-29 22:30N 38°42' W 009°25'0 0.0
2017-Oct-29 22:00N 38°42' W 009°25'0 0.0
2017-Oct-29 21:30N 38°42' W 009°25'0 0.0
2017-Oct-29 21:00N 38°42' W 009°25'0 0.0
2017-Oct-29 20:30N 38°42' W 009°25'0 0.0
2017-Oct-29 20:00N 38°42' W 009°25'0 0.0
2017-Oct-29 19:30N 38°42' W 009°25'0 0.0
2017-Oct-29 19:00N 38°42' W 009°25'0 0.0
2017-Oct-29 18:30N 38°42' W 009°25'0 0.0
2017-Oct-29 18:00N 38°42' W 009°25'0 0.0
2017-Oct-29 17:30N 38°42' W 009°25'0 0.0
2017-Oct-29 17:00N 38°42' W 009°25'0 0.0
2017-Oct-29 16:30N 38°42' W 009°25'0 0.0
2017-Oct-29 16:00N 38°42' W 009°25'0 0.0
2017-Oct-29 15:30N 38°42' W 009°25'0 0.0
2017-Oct-29 14:59N 38°42' W 009°25'0 0.0
2017-Oct-29 14:30N 38°42' W 009°25'0 0.0
2017-Oct-29 14:00N 38°42' W 009°25'0 0.0
2017-Oct-29 13:30N 38°42' W 009°25'0 0.0
2017-Oct-29 13:00N 38°42' W 009°25'0 0.0
2017-Oct-29 12:30N 38°42' W 009°25'0 0.0
2017-Oct-29 12:00N 38°42' W 009°25'0 0.0
2017-Oct-29 11:30N 38°42' W 009°25'0 0.0
2017-Oct-29 11:00N 38°42' W 009°25'0 0.0
2017-Oct-29 10:30N 38°42' W 009°25'0 0.0
2017-Oct-29 10:00N 38°42' W 009°25'0 0.0
2017-Oct-29 09:30N 38°42' W 009°25'0 0.0
2017-Oct-29 09:00N 38°42' W 009°25'0 0.0
2017-Oct-29 08:30N 38°42' W 009°25'0 0.0
2017-Oct-29 07:59N 38°42' W 009°25'0 0.0
2017-Oct-29 07:30N 38°42' W 009°25'0 0.0
2017-Oct-29 07:00N 38°42' W 009°25'0 0.0
2017-Oct-29 06:30N 38°42' W 009°25'0 0.0
2017-Oct-29 06:00N 38°42' W 009°25'0 0.0
2017-Oct-29 05:30N 38°42' W 009°25'0 0.0
2017-Oct-29 05:00N 38°42' W 009°25'0 0.0
2017-Oct-29 04:29N 38°42' W 009°25'0 0.0
2017-Oct-29 04:00N 38°42' W 009°25'0 0.0
2017-Oct-28 19:00N 38°42' W 009°25'0 0.0
2017-Oct-28 18:27N 38°42' W 009°25'0 0.0
2017-Oct-28 17:59N 38°42' W 009°25'0 0.0
2017-Oct-28 17:30N 38°42' W 009°25'0 0.0
2017-Oct-28 17:00N 38°42' W 009°25'0 0.0
2017-Oct-28 16:30N 38°42' W 009°25'0 0.0
2017-Oct-28 16:00N 38°42' W 009°25'0 0.0
2017-Oct-28 15:30N 38°42' W 009°25'0 0.0
2017-Oct-28 15:00N 38°42' W 009°25'0 0.0
2017-Oct-28 14:28N 38°42' W 009°25'0 0.0
2017-Oct-28 14:00N 38°42' W 009°25'0 0.0
2017-Oct-28 13:30N 38°42' W 009°25'0 0.0
2017-Oct-28 12:57N 38°42' W 009°25'0 0.0
2017-Oct-28 12:30N 38°42' W 009°25'0 0.0
2017-Oct-28 11:56N 38°42' W 009°25'0 0.0
2017-Oct-28 11:30N 38°42' W 009°25'0 0.0
2017-Oct-28 11:00N 38°42' W 009°25'0 0.0
2017-Oct-28 10:30N 38°42' W 009°25'0 0.0
2017-Oct-28 10:00N 38°42' W 009°25'0 0.0
2017-Oct-28 09:30N 38°42' W 009°25'0 0.0
2017-Oct-28 09:00N 38°42' W 009°25'0 0.0
2017-Oct-28 08:30N 38°42' W 009°25'0 0.0
2017-Oct-28 08:00N 38°42' W 009°25'0 0.0
2017-Oct-28 07:30N 38°42' W 009°25'0 0.0
2017-Oct-28 07:00N 38°42' W 009°25'0 0.0
2017-Oct-28 06:29N 38°42' W 009°25'0 0.0
2017-Oct-28 06:00N 38°42' W 009°25'0 0.0
2017-Oct-28 05:29N 38°42' W 009°25'0 0.0
2017-Oct-28 04:59N 38°42' W 009°25'0 0.0
2017-Oct-28 04:28N 38°42' W 009°25'0 0.0
2017-Oct-28 03:59N 38°42' W 009°25'0 0.0
2017-Oct-28 03:30N 38°42' W 009°25'0 0.0
2017-Oct-28 03:00N 38°42' W 009°25'0 0.0
2017-Oct-28 02:30N 38°42' W 009°25'0 0.0
2017-Oct-28 02:00N 38°42' W 009°25'0 0.0
2017-Oct-28 01:29N 38°42' W 009°25'0 0.0
2017-Oct-28 01:00N 38°42' W 009°25'0 0.0
2017-Oct-28 00:30N 38°42' W 009°25'0 0.0
2017-Oct-28 00:00N 38°42' W 009°25'0 0.0
2017-Oct-27 23:30N 38°42' W 009°25'0 0.0
2017-Oct-27 23:00N 38°42' W 009°25'0 0.0
2017-Oct-27 22:30N 38°42' W 009°25'0 0.0
2017-Oct-27 22:00N 38°42' W 009°25'0 0.0
2017-Oct-27 21:30N 38°42' W 009°25'0 0.0
2017-Oct-27 21:00N 38°42' W 009°25'0 0.0
2017-Oct-27 20:30N 38°42' W 009°25'0 0.0
2017-Oct-27 19:59N 38°42' W 009°25'0 0.0
2017-Oct-27 19:30N 38°42' W 009°25'0 0.0
2017-Oct-27 19:00N 38°42' W 009°25'0 0.0
2017-Oct-27 18:30N 38°42' W 009°25'0 0.0
2017-Oct-27 18:00N 38°42' W 009°25'0 0.0
2017-Oct-27 17:30N 38°42' W 009°25'0 0.0
2017-Oct-27 17:00N 38°42' W 009°25'0 0.0
2017-Oct-27 16:29N 38°42' W 009°25'0 0.0
2017-Oct-27 16:00N 38°42' W 009°25'0 0.0
2017-Oct-27 15:30N 38°42' W 009°25'0 0.0
2017-Oct-27 15:00N 38°42' W 009°25'0 0.0
2017-Oct-27 14:30N 38°42' W 009°25'0 0.0
2017-Oct-27 14:00N 38°42' W 009°25'0 0.0
2017-Oct-27 13:30N 38°42' W 009°25'0 0.0
2017-Oct-27 13:00N 38°42' W 009°25'0 0.0
2017-Oct-27 12:30N 38°42' W 009°25'0 0.0
2017-Oct-27 12:00N 38°42' W 009°25'0 0.0
2017-Oct-27 11:30N 38°42' W 009°25'0 0.0
2017-Oct-27 11:00N 38°42' W 009°25'0 0.0
2017-Oct-27 10:30N 38°42' W 009°25'0 0.0
2017-Oct-27 10:00N 38°42' W 009°25'0 0.0
2017-Oct-27 09:30N 38°42' W 009°25'0 0.0
2017-Oct-27 09:00N 38°42' W 009°25'0 0.0
2017-Oct-27 08:30N 38°42' W 009°25'0 0.0
2017-Oct-27 08:00N 38°42' W 009°25'0 0.0
2017-Oct-27 07:30N 38°42' W 009°25'0 0.6
2017-Oct-27 07:00N 38°42' W 009°25'2 4.4
2017-Oct-27 06:30N 38°40' W 009°26'2 4.3
2017-Oct-27 06:00N 38°39' W 009°28'2 4.6
2017-Oct-27 05:30N 38°39' W 009°31'2 4.5
2017-Oct-27 05:00N 38°41' W 009°33'2 4.7
2017-Oct-27 04:30N 38°43' W 009°35'2 4.7
2017-Oct-27 04:00N 38°45' W 009°37'2 4.9
2017-Oct-27 03:30N 38°47' W 009°38'2 4.8
2017-Oct-27 03:00N 38°49' W 009°39'3 5.1
2017-Oct-27 02:30N 38°51' W 009°40'2 5.0
2017-Oct-27 02:00N 38°54' W 009°41'2 5.0
2017-Oct-27 01:30N 38°56' W 009°41'2 4.7
2017-Oct-27 01:00N 38°59' W 009°42'2 4.7
2017-Oct-27 00:30N 39°01' W 009°41'2 5.0
2017-Oct-27 00:00N 39°04' W 009°41'3 5.0
2017-Oct-26 23:30N 39°06' W 009°41'3 5.3
2017-Oct-26 22:58N 39°09' W 009°41'283 5.6
2017-Oct-24 20:32N 43°46' W 008°22'1 7.0
2017-Oct-24 20:27N 43°46' W 008°21'  
2017-Oct-22 08:48N 47°47' W 004°01'5 5.3
2017-Oct-22 07:53N 47°51' W 003°56'  

Dump ship's entire track history